Main page
METAR-TAF:

METAR-TAF

Airports :

Creston Municipal Airport

Creston, Iowa, United States

latitude: 41-01N, longitude: 094-22W, elevation: 1292 ft

Current weather observation

The report was made 56 minutes ago, at 04:35 UTC
Wind 14 mph from the South/Southwest
Temperature 57°F
Humidity 55%
Pressure 29.78 in. Hg
Visibility: 10 miles
Clear sky

METAR: KCSQ 230435Z AUTO 21012KT 10SM CLR 14/05 A2978 RMK AO2

Time: 00:31 (05:31 UTC)


TAF: missing

Weather observations and forecasts of more than 4000 airports (METAR and TAF reports).

The available stations are represented by yellow and red dots on the map.

Hover mouse over dot to see the name of the station.

Then click to see weather observations and forecasts.

To change the map : click on the green buttons with a black cross to zoom in, on the green button with a dash to zoom out, or on the green arrows for adjacent maps.


METAR-TAF: